sensor_id;sensor_type;location;lat;lon;timestamp;temperature;humidity
23291;DHT22;11814;44.686;10.842;2023-03-14T00:01:37;12.20;99.90
23291;DHT22;11814;44.686;10.842;2023-03-14T00:04:04;12.10;99.90
23291;DHT22;11814;44.686;10.842;2023-03-14T00:06:30;12.10;99.90
23291;DHT22;11814;44.686;10.842;2023-03-14T00:08:57;12.00;99.90
23291;DHT22;11814;44.686;10.842;2023-03-14T00:11:23;12.00;99.90
23291;DHT22;11814;44.686;10.842;2023-03-14T00:13:52;11.90;99.90
23291;DHT22;11814;44.686;10.842;2023-03-14T00:16:18;11.90;99.90
23291;DHT22;11814;44.686;10.842;2023-03-14T00:18:44;12.00;99.90
23291;DHT22;11814;44.686;10.842;2023-03-14T00:21:11;12.00;99.90
23291;DHT22;11814;44.686;10.842;2023-03-14T00:23:39;11.90;99.90
23291;DHT22;11814;44.686;10.842;2023-03-14T00:26:10;11.90;99.90
23291;DHT22;11814;44.686;10.842;2023-03-14T00:28:37;11.90;99.90
23291;DHT22;11814;44.686;10.842;2023-03-14T00:31:04;11.90;99.90
23291;DHT22;11814;44.686;10.842;2023-03-14T00:33:30;11.90;99.90
23291;DHT22;11814;44.686;10.842;2023-03-14T00:36:02;11.80;99.90
23291;DHT22;11814;44.686;10.842;2023-03-14T00:38:30;11.80;99.90
23291;DHT22;11814;44.686;10.842;2023-03-14T00:40:56;11.70;99.90
23291;DHT22;11814;44.686;10.842;2023-03-14T00:43:22;11.70;99.90
23291;DHT22;11814;44.686;10.842;2023-03-14T00:45:52;11.60;99.90
23291;DHT22;11814;44.686;10.842;2023-03-14T00:48:19;11.60;99.90
23291;DHT22;11814;44.686;10.842;2023-03-14T00:50:45;11.60;99.90
23291;DHT22;11814;44.686;10.842;2023-03-14T00:53:11;11.60;99.90
23291;DHT22;11814;44.686;10.842;2023-03-14T00:55:38;11.50;99.90
23291;DHT22;11814;44.686;10.842;2023-03-14T00:58:04;11.50;99.90
23291;DHT22;11814;44.686;10.842;2023-03-14T01:00:31;11.50;99.90
23291;DHT22;11814;44.686;10.842;2023-03-14T01:02:56;11.40;99.90
23291;DHT22;11814;44.686;10.842;2023-03-14T01:05:23;11.40;99.90
23291;DHT22;11814;44.686;10.842;2023-03-14T01:07:49;11.40;99.90
23291;DHT22;11814;44.686;10.842;2023-03-14T01:10:15;11.40;99.90
23291;DHT22;11814;44.686;10.842;2023-03-14T01:12:41;11.40;99.90
23291;DHT22;11814;44.686;10.842;2023-03-14T01:15:07;11.40;99.90
23291;DHT22;11814;44.686;10.842;2023-03-14T01:17:33;11.30;99.90
23291;DHT22;11814;44.686;10.842;2023-03-14T01:19:59;11.30;99.90
23291;DHT22;11814;44.686;10.842;2023-03-14T01:22:25;11.30;99.90
23291;DHT22;11814;44.686;10.842;2023-03-14T01:24:51;11.30;99.90
23291;DHT22;11814;44.686;10.842;2023-03-14T01:27:17;11.40;99.90
23291;DHT22;11814;44.686;10.842;2023-03-14T01:29:43;11.40;99.90
23291;DHT22;11814;44.686;10.842;2023-03-14T01:32:08;11.40;99.90
23291;DHT22;11814;44.686;10.842;2023-03-14T01:34:34;11.40;99.90
23291;DHT22;11814;44.686;10.842;2023-03-14T01:37:00;11.40;99.90
23291;DHT22;11814;44.686;10.842;2023-03-14T01:39:25;11.40;99.90
23291;DHT22;11814;44.686;10.842;2023-03-14T01:41:51;11.30;99.90
23291;DHT22;11814;44.686;10.842;2023-03-14T01:44:17;11.40;99.90
23291;DHT22;11814;44.686;10.842;2023-03-14T01:46:44;11.40;99.90
23291;DHT22;11814;44.686;10.842;2023-03-14T01:49:30;11.40;99.90
23291;DHT22;11814;44.686;10.842;2023-03-14T01:54:44;11.40;99.90
23291;DHT22;11814;44.686;10.842;2023-03-14T01:57:39;11.40;99.90
23291;DHT22;11814;44.686;10.842;2023-03-14T02:00:13;11.40;99.90
23291;DHT22;11814;44.686;10.842;2023-03-14T02:02:43;11.30;99.90
23291;DHT22;11814;44.686;10.842;2023-03-14T02:05:12;11.30;99.90
23291;DHT22;11814;44.686;10.842;2023-03-14T02:07:49;11.30;99.90
23291;DHT22;11814;44.686;10.842;2023-03-14T02:10:17;11.30;99.90
23291;DHT22;11814;44.686;10.842;2023-03-14T02:12:45;11.30;99.90
23291;DHT22;11814;44.686;10.842;2023-03-14T02:15:12;11.20;99.90
23291;DHT22;11814;44.686;10.842;2023-03-14T02:17:43;11.20;99.90
23291;DHT22;11814;44.686;10.842;2023-03-14T02:22:53;11.20;99.90
23291;DHT22;11814;44.686;10.842;2023-03-14T02:27:50;11.20;99.90
23291;DHT22;11814;44.686;10.842;2023-03-14T02:30:22;11.20;99.90
23291;DHT22;11814;44.686;10.842;2023-03-14T02:32:54;11.10;99.90
23291;DHT22;11814;44.686;10.842;2023-03-14T02:35:29;11.10;99.90
23291;DHT22;11814;44.686;10.842;2023-03-14T02:38:03;11.00;99.90
23291;DHT22;11814;44.686;10.842;2023-03-14T02:40:30;11.00;99.90
23291;DHT22;11814;44.686;10.842;2023-03-14T02:42:56;10.90;99.90
23291;DHT22;11814;44.686;10.842;2023-03-14T02:45:35;10.80;99.90
23291;DHT22;11814;44.686;10.842;2023-03-14T02:48:06;10.80;99.90
23291;DHT22;11814;44.686;10.842;2023-03-14T02:50:34;10.80;99.90
23291;DHT22;11814;44.686;10.842;2023-03-14T02:53:00;10.80;99.90
23291;DHT22;11814;44.686;10.842;2023-03-14T02:55:26;10.80;99.90
23291;DHT22;11814;44.686;10.842;2023-03-14T02:57:52;10.90;99.90
23291;DHT22;11814;44.686;10.842;2023-03-14T03:00:18;10.90;99.90
23291;DHT22;11814;44.686;10.842;2023-03-14T03:02:45;11.00;99.90
23291;DHT22;11814;44.686;10.842;2023-03-14T03:05:11;11.00;99.90
23291;DHT22;11814;44.686;10.842;2023-03-14T03:07:36;11.00;99.90
23291;DHT22;11814;44.686;10.842;2023-03-14T03:10:03;10.90;99.90
23291;DHT22;11814;44.686;10.842;2023-03-14T03:12:29;10.90;99.90
23291;DHT22;11814;44.686;10.842;2023-03-14T03:14:54;10.90;99.90
23291;DHT22;11814;44.686;10.842;2023-03-14T03:17:20;10.80;99.90
23291;DHT22;11814;44.686;10.842;2023-03-14T03:19:46;10.80;99.90
23291;DHT22;11814;44.686;10.842;2023-03-14T03:22:12;10.80;99.90
23291;DHT22;11814;44.686;10.842;2023-03-14T03:24:37;10.80;99.90
23291;DHT22;11814;44.686;10.842;2023-03-14T03:27:03;10.80;99.90
23291;DHT22;11814;44.686;10.842;2023-03-14T03:29:29;10.80;99.90
23291;DHT22;11814;44.686;10.842;2023-03-14T03:31:55;10.80;99.90
23291;DHT22;11814;44.686;10.842;2023-03-14T03:34:21;10.80;99.90
23291;DHT22;11814;44.686;10.842;2023-03-14T03:36:47;10.80;99.90
23291;DHT22;11814;44.686;10.842;2023-03-14T03:39:12;10.80;99.90
23291;DHT22;11814;44.686;10.842;2023-03-14T03:41:38;10.80;99.90
23291;DHT22;11814;44.686;10.842;2023-03-14T03:44:04;10.80;99.90
23291;DHT22;11814;44.686;10.842;2023-03-14T03:46:31;10.80;99.90
23291;DHT22;11814;44.686;10.842;2023-03-14T03:48:58;10.80;99.90
23291;DHT22;11814;44.686;10.842;2023-03-14T03:51:24;10.80;99.90
23291;DHT22;11814;44.686;10.842;2023-03-14T03:53:50;10.80;99.90
23291;DHT22;11814;44.686;10.842;2023-03-14T03:56:16;10.70;99.90
23291;DHT22;11814;44.686;10.842;2023-03-14T03:58:42;10.70;99.90
23291;DHT22;11814;44.686;10.842;2023-03-14T04:01:09;10.70;99.90
23291;DHT22;11814;44.686;10.842;2023-03-14T04:03:36;10.70;99.90
23291;DHT22;11814;44.686;10.842;2023-03-14T04:06:09;10.60;99.90
23291;DHT22;11814;44.686;10.842;2023-03-14T04:08:36;10.60;99.90
23291;DHT22;11814;44.686;10.842;2023-03-14T04:11:02;10.70;99.90
23291;DHT22;11814;44.686;10.842;2023-03-14T04:13:29;10.70;99.90
23291;DHT22;11814;44.686;10.842;2023-03-14T04:15:55;10.70;99.90
23291;DHT22;11814;44.686;10.842;2023-03-14T04:18:22;10.60;99.90
23291;DHT22;11814;44.686;10.842;2023-03-14T04:20:54;10.50;99.90
23291;DHT22;11814;44.686;10.842;2023-03-14T04:23:21;10.40;99.90
23291;DHT22;11814;44.686;10.842;2023-03-14T04:25:50;10.40;99.90
23291;DHT22;11814;44.686;10.842;2023-03-14T04:28:16;10.40;99.90
23291;DHT22;11814;44.686;10.842;2023-03-14T04:30:42;10.50;99.90
23291;DHT22;11814;44.686;10.842;2023-03-14T04:33:08;10.50;99.90
23291;DHT22;11814;44.686;10.842;2023-03-14T04:35:33;10.50;99.90
23291;DHT22;11814;44.686;10.842;2023-03-14T04:37:59;10.60;99.90
23291;DHT22;11814;44.686;10.842;2023-03-14T04:40:25;10.60;99.90
23291;DHT22;11814;44.686;10.842;2023-03-14T04:42:51;10.50;99.90
23291;DHT22;11814;44.686;10.842;2023-03-14T04:45:16;10.50;99.90
23291;DHT22;11814;44.686;10.842;2023-03-14T04:47:42;10.40;99.90
23291;DHT22;11814;44.686;10.842;2023-03-14T04:50:09;10.50;99.90
23291;DHT22;11814;44.686;10.842;2023-03-14T04:52:35;10.40;99.90
23291;DHT22;11814;44.686;10.842;2023-03-14T04:55:01;10.50;99.90
23291;DHT22;11814;44.686;10.842;2023-03-14T04:57:27;10.40;99.90
23291;DHT22;11814;44.686;10.842;2023-03-14T04:59:52;10.40;99.90
23291;DHT22;11814;44.686;10.842;2023-03-14T05:02:18;10.30;99.90
23291;DHT22;11814;44.686;10.842;2023-03-14T05:04:44;10.30;99.90
23291;DHT22;11814;44.686;10.842;2023-03-14T05:07:09;10.30;99.90
23291;DHT22;11814;44.686;10.842;2023-03-14T05:09:35;10.20;99.90
23291;DHT22;11814;44.686;10.842;2023-03-14T05:12:01;10.10;99.90
23291;DHT22;11814;44.686;10.842;2023-03-14T05:14:27;10.00;99.90
23291;DHT22;11814;44.686;10.842;2023-03-14T05:16:52;9.90;99.90
23291;DHT22;11814;44.686;10.842;2023-03-14T05:19:18;9.90;99.90
23291;DHT22;11814;44.686;10.842;2023-03-14T05:21:44;9.90;99.90
23291;DHT22;11814;44.686;10.842;2023-03-14T05:24:09;9.90;99.90
23291;DHT22;11814;44.686;10.842;2023-03-14T05:26:35;9.80;99.90
23291;DHT22;11814;44.686;10.842;2023-03-14T05:29:01;9.80;99.90
23291;DHT22;11814;44.686;10.842;2023-03-14T05:31:27;9.80;99.90
23291;DHT22;11814;44.686;10.842;2023-03-14T05:33:53;9.80;99.90
23291;DHT22;11814;44.686;10.842;2023-03-14T05:36:18;10.00;99.90
23291;DHT22;11814;44.686;10.842;2023-03-14T05:38:44;10.10;99.90
23291;DHT22;11814;44.686;10.842;2023-03-14T05:41:10;10.10;99.90
23291;DHT22;11814;44.686;10.842;2023-03-14T05:43:35;10.20;99.90
23291;DHT22;11814;44.686;10.842;2023-03-14T05:46:01;10.30;99.90
23291;DHT22;11814;44.686;10.842;2023-03-14T05:48:27;10.40;99.90
23291;DHT22;11814;44.686;10.842;2023-03-14T05:50:57;10.50;99.90
23291;DHT22;11814;44.686;10.842;2023-03-14T05:53:24;10.70;99.90
23291;DHT22;11814;44.686;10.842;2023-03-14T05:55:54;10.90;99.90
23291;DHT22;11814;44.686;10.842;2023-03-14T05:58:20;11.20;99.90
23291;DHT22;11814;44.686;10.842;2023-03-14T06:00:46;11.50;99.90
23291;DHT22;11814;44.686;10.842;2023-03-14T06:03:12;11.70;99.90
23291;DHT22;11814;44.686;10.842;2023-03-14T06:05:38;11.80;99.90
23291;DHT22;11814;44.686;10.842;2023-03-14T06:08:04;12.00;99.90
23291;DHT22;11814;44.686;10.842;2023-03-14T06:10:30;12.10;99.90
23291;DHT22;11814;44.686;10.842;2023-03-14T06:12:55;12.00;99.90
23291;DHT22;11814;44.686;10.842;2023-03-14T06:15:21;11.90;99.90
23291;DHT22;11814;44.686;10.842;2023-03-14T06:17:47;11.80;99.90
23291;DHT22;11814;44.686;10.842;2023-03-14T06:20:13;11.70;99.90
23291;DHT22;11814;44.686;10.842;2023-03-14T06:22:39;11.70;99.90
23291;DHT22;11814;44.686;10.842;2023-03-14T06:25:06;11.70;99.90
23291;DHT22;11814;44.686;10.842;2023-03-14T06:27:32;11.60;99.90
23291;DHT22;11814;44.686;10.842;2023-03-14T06:29:58;11.60;99.90
23291;DHT22;11814;44.686;10.842;2023-03-14T06:32:24;11.50;99.90
23291;DHT22;11814;44.686;10.842;2023-03-14T06:34:50;11.50;99.90
23291;DHT22;11814;44.686;10.842;2023-03-14T06:37:16;11.40;99.90
23291;DHT22;11814;44.686;10.842;2023-03-14T06:39:41;11.40;99.90
23291;DHT22;11814;44.686;10.842;2023-03-14T06:42:09;11.40;99.90
23291;DHT22;11814;44.686;10.842;2023-03-14T06:44:35;11.40;99.90
23291;DHT22;11814;44.686;10.842;2023-03-14T06:47:01;11.40;99.90
23291;DHT22;11814;44.686;10.842;2023-03-14T06:49:27;11.30;99.90
23291;DHT22;11814;44.686;10.842;2023-03-14T06:51:52;11.40;99.90
23291;DHT22;11814;44.686;10.842;2023-03-14T06:54:18;11.40;99.90
23291;DHT22;11814;44.686;10.842;2023-03-14T06:56:44;11.40;99.90
23291;DHT22;11814;44.686;10.842;2023-03-14T06:59:09;11.40;99.90
23291;DHT22;11814;44.686;10.842;2023-03-14T07:01:35;11.40;99.90
23291;DHT22;11814;44.686;10.842;2023-03-14T07:04:02;11.40;99.90
23291;DHT22;11814;44.686;10.842;2023-03-14T07:06:28;11.50;99.90
23291;DHT22;11814;44.686;10.842;2023-03-14T07:08:55;11.40;99.90
23291;DHT22;11814;44.686;10.842;2023-03-14T07:11:21;11.50;99.90
23291;DHT22;11814;44.686;10.842;2023-03-14T07:13:47;11.70;99.90
23291;DHT22;11814;44.686;10.842;2023-03-14T07:16:13;12.00;99.90
23291;DHT22;11814;44.686;10.842;2023-03-14T07:18:39;12.20;99.90
23291;DHT22;11814;44.686;10.842;2023-03-14T07:21:06;12.50;99.90
23291;DHT22;11814;44.686;10.842;2023-03-14T07:23:32;12.70;99.90
23291;DHT22;11814;44.686;10.842;2023-03-14T07:25:58;12.80;99.90
23291;DHT22;11814;44.686;10.842;2023-03-14T07:28:24;12.70;99.90
23291;DHT22;11814;44.686;10.842;2023-03-14T07:30:50;12.70;99.90
23291;DHT22;11814;44.686;10.842;2023-03-14T07:33:16;12.60;99.90
23291;DHT22;11814;44.686;10.842;2023-03-14T07:35:41;12.60;99.90
23291;DHT22;11814;44.686;10.842;2023-03-14T07:38:07;12.60;99.90
23291;DHT22;11814;44.686;10.842;2023-03-14T07:40:33;12.60;99.90
23291;DHT22;11814;44.686;10.842;2023-03-14T07:42:58;12.60;99.90
23291;DHT22;11814;44.686;10.842;2023-03-14T07:45:24;12.70;99.90
23291;DHT22;11814;44.686;10.842;2023-03-14T07:47:50;12.80;99.90
23291;DHT22;11814;44.686;10.842;2023-03-14T07:50:16;12.80;99.90
23291;DHT22;11814;44.686;10.842;2023-03-14T07:52:42;12.70;99.90
23291;DHT22;11814;44.686;10.842;2023-03-14T07:55:08;12.60;99.90
23291;DHT22;11814;44.686;10.842;2023-03-14T07:57:33;12.50;99.90
23291;DHT22;11814;44.686;10.842;2023-03-14T07:59:59;12.40;99.90
23291;DHT22;11814;44.686;10.842;2023-03-14T08:02:25;12.40;99.90
23291;DHT22;11814;44.686;10.842;2023-03-14T08:04:51;12.40;99.90
23291;DHT22;11814;44.686;10.842;2023-03-14T08:07:17;12.90;99.90
23291;DHT22;11814;44.686;10.842;2023-03-14T08:09:42;13.40;99.90
23291;DHT22;11814;44.686;10.842;2023-03-14T08:12:08;13.80;99.90
23291;DHT22;11814;44.686;10.842;2023-03-14T08:14:34;14.50;99.90
23291;DHT22;11814;44.686;10.842;2023-03-14T08:17:00;15.10;99.90
23291;DHT22;11814;44.686;10.842;2023-03-14T08:19:26;15.10;99.90
23291;DHT22;11814;44.686;10.842;2023-03-14T08:21:52;15.30;99.90
23291;DHT22;11814;44.686;10.842;2023-03-14T08:24:18;15.60;99.90
23291;DHT22;11814;44.686;10.842;2023-03-14T08:26:44;15.40;99.90
23291;DHT22;11814;44.686;10.842;2023-03-14T08:29:09;15.10;99.90
23291;DHT22;11814;44.686;10.842;2023-03-14T08:31:35;15.00;99.90
23291;DHT22;11814;44.686;10.842;2023-03-14T08:34:02;15.20;99.90
23291;DHT22;11814;44.686;10.842;2023-03-14T08:36:28;15.50;99.90
23291;DHT22;11814;44.686;10.842;2023-03-14T08:38:54;15.60;99.90
23291;DHT22;11814;44.686;10.842;2023-03-14T08:41:20;15.70;99.90
23291;DHT22;11814;44.686;10.842;2023-03-14T08:43:45;15.80;99.90
23291;DHT22;11814;44.686;10.842;2023-03-14T08:46:11;15.90;99.90
23291;DHT22;11814;44.686;10.842;2023-03-14T08:48:37;16.10;99.90
23291;DHT22;11814;44.686;10.842;2023-03-14T08:51:11;16.10;99.90
23291;DHT22;11814;44.686;10.842;2023-03-14T08:53:38;16.10;99.90
23291;DHT22;11814;44.686;10.842;2023-03-14T08:56:04;16.20;99.90
23291;DHT22;11814;44.686;10.842;2023-03-14T08:58:32;16.20;99.90
23291;DHT22;11814;44.686;10.842;2023-03-14T09:00:57;16.50;99.90
23291;DHT22;11814;44.686;10.842;2023-03-14T09:03:24;16.70;99.90
23291;DHT22;11814;44.686;10.842;2023-03-14T09:05:51;16.70;99.90
23291;DHT22;11814;44.686;10.842;2023-03-14T09:08:17;16.50;99.90
23291;DHT22;11814;44.686;10.842;2023-03-14T09:10:43;16.50;99.90
23291;DHT22;11814;44.686;10.842;2023-03-14T09:13:08;16.50;99.90
23291;DHT22;11814;44.686;10.842;2023-03-14T09:15:34;16.60;99.90
23291;DHT22;11814;44.686;10.842;2023-03-14T09:18:00;16.80;99.90
23291;DHT22;11814;44.686;10.842;2023-03-14T09:20:26;17.00;99.90
23291;DHT22;11814;44.686;10.842;2023-03-14T09:22:52;17.00;99.90
23291;DHT22;11814;44.686;10.842;2023-03-14T09:25:17;17.20;99.90
23291;DHT22;11814;44.686;10.842;2023-03-14T09:27:43;17.50;99.90
23291;DHT22;11814;44.686;10.842;2023-03-14T09:30:10;17.70;99.90
23291;DHT22;11814;44.686;10.842;2023-03-14T09:32:36;18.00;99.90
23291;DHT22;11814;44.686;10.842;2023-03-14T09:35:02;18.10;99.90
23291;DHT22;11814;44.686;10.842;2023-03-14T09:37:27;18.30;99.90
23291;DHT22;11814;44.686;10.842;2023-03-14T09:39:53;18.40;99.90
23291;DHT22;11814;44.686;10.842;2023-03-14T09:42:23;18.50;99.90
23291;DHT22;11814;44.686;10.842;2023-03-14T09:45:00;18.50;99.90
23291;DHT22;11814;44.686;10.842;2023-03-14T09:47:27;18.60;99.90
23291;DHT22;11814;44.686;10.842;2023-03-14T09:49:54;18.80;99.90
23291;DHT22;11814;44.686;10.842;2023-03-14T09:52:32;18.60;99.20
23291;DHT22;11814;44.686;10.842;2023-03-14T09:55:04;18.40;98.60
23291;DHT22;11814;44.686;10.842;2023-03-14T09:57:33;18.20;98.50
23291;DHT22;11814;44.686;10.842;2023-03-14T10:00:21;18.00;99.00
23291;DHT22;11814;44.686;10.842;2023-03-14T10:02:53;18.00;99.20
23291;DHT22;11814;44.686;10.842;2023-03-14T10:05:22;17.90;99.40
23291;DHT22;11814;44.686;10.842;2023-03-14T10:07:48;17.90;99.20
23291;DHT22;11814;44.686;10.842;2023-03-14T10:12:54;17.80;99.50
23291;DHT22;11814;44.686;10.842;2023-03-14T10:15:32;17.80;99.70
23291;DHT22;11814;44.686;10.842;2023-03-14T10:18:00;17.70;99.90
23291;DHT22;11814;44.686;10.842;2023-03-14T10:20:35;17.80;99.90
23291;DHT22;11814;44.686;10.842;2023-03-14T10:23:28;18.00;99.90
23291;DHT22;11814;44.686;10.842;2023-03-14T10:26:03;18.00;99.90
23291;DHT22;11814;44.686;10.842;2023-03-14T10:28:37;18.00;99.90
23291;DHT22;11814;44.686;10.842;2023-03-14T10:31:04;18.00;99.90
23291;DHT22;11814;44.686;10.842;2023-03-14T10:33:35;17.90;99.90
23291;DHT22;11814;44.686;10.842;2023-03-14T10:38:30;17.60;99.90
23291;DHT22;11814;44.686;10.842;2023-03-14T10:40:57;17.50;99.90
23291;DHT22;11814;44.686;10.842;2023-03-14T10:43:34;17.30;99.90
23291;DHT22;11814;44.686;10.842;2023-03-14T10:46:09;17.20;99.90
23291;DHT22;11814;44.686;10.842;2023-03-14T10:48:36;17.10;99.90
23291;DHT22;11814;44.686;10.842;2023-03-14T10:53:55;17.00;99.90
23291;DHT22;11814;44.686;10.842;2023-03-14T10:56:24;17.00;99.90
23291;DHT22;11814;44.686;10.842;2023-03-14T10:58:53;17.00;99.90
23291;DHT22;11814;44.686;10.842;2023-03-14T11:01:44;17.00;99.90
23291;DHT22;11814;44.686;10.842;2023-03-14T11:04:15;17.10;99.90
23291;DHT22;11814;44.686;10.842;2023-03-14T11:09:33;17.50;99.90
23291;DHT22;11814;44.686;10.842;2023-03-14T11:14:45;17.60;99.90
23291;DHT22;11814;44.686;10.842;2023-03-14T11:17:27;17.70;99.90
23291;DHT22;11814;44.686;10.842;2023-03-14T11:20:33;17.80;99.90
23291;DHT22;11814;44.686;10.842;2023-03-14T11:23:08;18.00;99.90
23291;DHT22;11814;44.686;10.842;2023-03-14T11:25:53;18.20;99.90
23291;DHT22;11814;44.686;10.842;2023-03-14T11:36:37;17.80;99.90
23291;DHT22;11814;44.686;10.842;2023-03-14T11:39:12;17.80;99.90
23291;DHT22;11814;44.686;10.842;2023-03-14T11:41:55;18.00;99.90
23291;DHT22;11814;44.686;10.842;2023-03-14T11:44:35;18.10;99.90
23291;DHT22;11814;44.686;10.842;2023-03-14T11:47:07;18.10;99.90
23291;DHT22;11814;44.686;10.842;2023-03-14T11:49:47;18.10;99.90
23291;DHT22;11814;44.686;10.842;2023-03-14T11:52:38;18.20;99.70
23291;DHT22;11814;44.686;10.842;2023-03-14T11:55:17;18.40;99.70
23291;DHT22;11814;44.686;10.842;2023-03-14T11:57:45;18.50;99.20
23291;DHT22;11814;44.686;10.842;2023-03-14T12:00:20;18.60;98.80
23291;DHT22;11814;44.686;10.842;2023-03-14T12:11:46;18.80;97.70
23291;DHT22;11814;44.686;10.842;2023-03-14T12:13:48;18.90;96.70
23291;DHT22;11814;44.686;10.842;2023-03-14T12:18:50;19.10;95.10
23291;DHT22;11814;44.686;10.842;2023-03-14T12:21:17;19.20;94.70
23291;DHT22;11814;44.686;10.842;2023-03-14T12:23:54;19.30;94.30
23291;DHT22;11814;44.686;10.842;2023-03-14T12:26:25;19.30;94.20
23291;DHT22;11814;44.686;10.842;2023-03-14T12:28:52;19.20;93.90
23291;DHT22;11814;44.686;10.842;2023-03-14T12:31:42;19.20;93.70
23291;DHT22;11814;44.686;10.842;2023-03-14T12:45:15;18.90;93.50
23291;DHT22;11814;44.686;10.842;2023-03-14T12:50:21;18.90;93.60
23291;DHT22;11814;44.686;10.842;2023-03-14T12:53:03;18.80;93.20
23291;DHT22;11814;44.686;10.842;2023-03-14T13:01:48;18.50;93.90
23291;DHT22;11814;44.686;10.842;2023-03-14T13:04:18;18.50;94.10
23291;DHT22;11814;44.686;10.842;2023-03-14T13:06:56;18.50;94.20
23291;DHT22;11814;44.686;10.842;2023-03-14T13:12:10;18.40;94.20
23291;DHT22;11814;44.686;10.842;2023-03-14T13:14:41;18.30;94.10
23291;DHT22;11814;44.686;10.842;2023-03-14T13:17:12;18.30;94.30
23291;DHT22;11814;44.686;10.842;2023-03-14T13:19:38;18.30;94.10
23291;DHT22;11814;44.686;10.842;2023-03-14T13:22:20;18.30;94.00
23291;DHT22;11814;44.686;10.842;2023-03-14T13:24:47;18.20;94.20
23291;DHT22;11814;44.686;10.842;2023-03-14T13:27:18;18.40;94.40
23291;DHT22;11814;44.686;10.842;2023-03-14T13:29:48;18.40;94.20
23291;DHT22;11814;44.686;10.842;2023-03-14T13:32:21;18.40;94.00
23291;DHT22;11814;44.686;10.842;2023-03-14T13:34:47;18.40;94.10
23291;DHT22;11814;44.686;10.842;2023-03-14T13:37:22;18.50;94.00
23291;DHT22;11814;44.686;10.842;2023-03-14T13:39:57;18.60;93.90
23291;DHT22;11814;44.686;10.842;2023-03-14T13:42:28;18.80;93.60
23291;DHT22;11814;44.686;10.842;2023-03-14T13:44:56;18.80;93.40
23291;DHT22;11814;44.686;10.842;2023-03-14T13:47:24;18.70;92.80
23291;DHT22;11814;44.686;10.842;2023-03-14T13:49:51;18.80;92.60
23291;DHT22;11814;44.686;10.842;2023-03-14T13:52:28;18.90;92.40
23291;DHT22;11814;44.686;10.842;2023-03-14T13:54:55;18.90;91.80
23291;DHT22;11814;44.686;10.842;2023-03-14T13:57:22;18.90;91.70
23291;DHT22;11814;44.686;10.842;2023-03-14T14:00:04;18.80;91.60
23291;DHT22;11814;44.686;10.842;2023-03-14T14:02:39;18.80;91.80
23291;DHT22;11814;44.686;10.842;2023-03-14T14:05:05;18.80;92.00
23291;DHT22;11814;44.686;10.842;2023-03-14T14:07:31;18.80;91.90
23291;DHT22;11814;44.686;10.842;2023-03-14T14:09:59;18.80;91.80
23291;DHT22;11814;44.686;10.842;2023-03-14T14:12:57;18.80;91.80
23291;DHT22;11814;44.686;10.842;2023-03-14T14:15:27;18.80;91.60
23291;DHT22;11814;44.686;10.842;2023-03-14T14:18:02;18.80;91.40
23291;DHT22;11814;44.686;10.842;2023-03-14T14:20:37;18.80;91.70
23291;DHT22;11814;44.686;10.842;2023-03-14T14:23:13;18.90;91.30
23291;DHT22;11814;44.686;10.842;2023-03-14T14:25:39;18.90;91.00
23291;DHT22;11814;44.686;10.842;2023-03-14T14:30:41;19.20;90.70
23291;DHT22;11814;44.686;10.842;2023-03-14T14:33:15;19.20;90.50
23291;DHT22;11814;44.686;10.842;2023-03-14T14:35:42;19.30;90.30
23291;DHT22;11814;44.686;10.842;2023-03-14T14:38:16;19.30;90.30
23291;DHT22;11814;44.686;10.842;2023-03-14T14:40:44;19.20;90.30
23291;DHT22;11814;44.686;10.842;2023-03-14T14:43:14;19.20;90.40
23291;DHT22;11814;44.686;10.842;2023-03-14T14:45:42;19.20;90.20
23291;DHT22;11814;44.686;10.842;2023-03-14T14:48:13;19.10;90.10
23291;DHT22;11814;44.686;10.842;2023-03-14T14:51:01;19.10;90.30
23291;DHT22;11814;44.686;10.842;2023-03-14T14:53:31;18.90;90.30
23291;DHT22;11814;44.686;10.842;2023-03-14T14:56:14;18.80;90.30
23291;DHT22;11814;44.686;10.842;2023-03-14T14:58:43;18.70;90.40
23291;DHT22;11814;44.686;10.842;2023-03-14T15:01:24;18.50;90.30
23291;DHT22;11814;44.686;10.842;2023-03-14T15:03:53;18.40;90.40
23291;DHT22;11814;44.686;10.842;2023-03-14T15:06:20;18.30;90.40
23291;DHT22;11814;44.686;10.842;2023-03-14T15:08:47;18.30;90.50
23291;DHT22;11814;44.686;10.842;2023-03-14T15:11:22;18.20;90.60
23291;DHT22;11814;44.686;10.842;2023-03-14T15:13:49;18.10;90.70
23291;DHT22;11814;44.686;10.842;2023-03-14T15:16:20;18.10;90.90
23291;DHT22;11814;44.686;10.842;2023-03-14T15:18:52;18.10;91.00
23291;DHT22;11814;44.686;10.842;2023-03-14T15:21:18;18.10;91.10
23291;DHT22;11814;44.686;10.842;2023-03-14T15:23:44;18.10;91.20
23291;DHT22;11814;44.686;10.842;2023-03-14T15:26:16;18.10;91.20
23291;DHT22;11814;44.686;10.842;2023-03-14T15:28:42;18.10;91.20
23291;DHT22;11814;44.686;10.842;2023-03-14T15:31:10;18.10;91.10
23291;DHT22;11814;44.686;10.842;2023-03-14T15:33:36;18.10;91.20
23291;DHT22;11814;44.686;10.842;2023-03-14T15:36:03;18.20;91.20
23291;DHT22;11814;44.686;10.842;2023-03-14T15:38:29;18.20;91.10
23291;DHT22;11814;44.686;10.842;2023-03-14T15:40:55;18.20;91.10
23291;DHT22;11814;44.686;10.842;2023-03-14T15:43:21;18.30;91.20
23291;DHT22;11814;44.686;10.842;2023-03-14T15:45:47;18.30;91.20
23291;DHT22;11814;44.686;10.842;2023-03-14T15:48:15;18.30;91.20
23291;DHT22;11814;44.686;10.842;2023-03-14T15:50:42;18.30;91.30
23291;DHT22;11814;44.686;10.842;2023-03-14T15:53:08;18.20;91.10
23291;DHT22;11814;44.686;10.842;2023-03-14T15:55:34;18.20;91.10
23291;DHT22;11814;44.686;10.842;2023-03-14T15:57:59;18.20;91.20
23291;DHT22;11814;44.686;10.842;2023-03-14T16:00:28;18.20;91.60
23291;DHT22;11814;44.686;10.842;2023-03-14T16:02:54;18.20;91.50
23291;DHT22;11814;44.686;10.842;2023-03-14T16:05:19;18.20;91.50
23291;DHT22;11814;44.686;10.842;2023-03-14T16:07:46;18.20;91.40
23291;DHT22;11814;44.686;10.842;2023-03-14T16:10:12;18.20;91.30
23291;DHT22;11814;44.686;10.842;2023-03-14T16:12:39;18.20;91.40
23291;DHT22;11814;44.686;10.842;2023-03-14T16:15:06;18.10;91.00
23291;DHT22;11814;44.686;10.842;2023-03-14T16:17:32;18.00;91.00
23291;DHT22;11814;44.686;10.842;2023-03-14T16:19:58;18.00;91.20
23291;DHT22;11814;44.686;10.842;2023-03-14T16:22:24;17.90;91.40
23291;DHT22;11814;44.686;10.842;2023-03-14T16:24:50;17.90;91.40
23291;DHT22;11814;44.686;10.842;2023-03-14T16:27:16;17.80;91.50
23291;DHT22;11814;44.686;10.842;2023-03-14T16:29:42;17.80;91.50
23291;DHT22;11814;44.686;10.842;2023-03-14T16:32:08;17.70;91.60